Time;durP1;ratioP1;P1;durP2;ratioP2;P2;SDS_P1;SDS_P2;PMS_P1;PMS_P2;Temp;Humidity;BMP_temperature;BMP_pressure;BME280_temperature;BME280_humidity;BME280_pressure;Samples;Min_cycle;Max_cycle;Signal;HPM_P1;HPM_P2
2023/04/14 00:01:04;;;;;;;2.57;1.63;;;8.60;99.90;;;;;;6155302;23;20048;-66
2023/04/14 00:03:29;;;;;;;2.23;0.90;;;8.60;99.90;;;;;;6155362;23;20038;-65
2023/04/14 00:05:55;;;;;;;1.23;0.70;;;8.60;99.90;;;;;;6155148;23;20014;-65
2023/04/14 00:08:21;;;;;;;0.80;0.50;;;8.60;99.90;;;;;;6155076;23;20008;-66
2023/04/14 00:10:47;;;;;;;1.87;0.53;;;8.70;99.90;;;;;;6155665;23;20010;-65
2023/04/14 00:13:12;;;;;;;1.17;0.67;;;8.70;99.90;;;;;;6155454;23;19994;-66
2023/04/14 00:15:40;;;;;;;2.87;0.80;;;8.70;99.90;;;;;;6155452;23;20052;-66
2023/04/14 00:18:06;;;;;;;2.20;0.70;;;8.70;99.90;;;;;;6155517;23;20013;-65
2023/04/14 00:20:32;;;;;;;3.70;0.60;;;8.70;99.90;;;;;;6155093;23;20455;-65
2023/04/14 00:22:58;;;;;;;0.93;0.60;;;8.70;99.90;;;;;;6155305;23;20005;-65
2023/04/14 00:25:23;;;;;;;1.03;0.60;;;8.70;99.90;;;;;;6155222;23;20009;-65
2023/04/14 00:27:49;;;;;;;3.63;0.50;;;8.70;99.90;;;;;;6155295;23;20017;-65
2023/04/14 00:30:15;;;;;;;0.53;0.50;;;8.70;99.90;;;;;;6155351;23;20004;-65
2023/04/14 00:32:40;;;;;;;1.50;0.40;;;8.80;99.90;;;;;;6155310;23;20006;-65
2023/04/14 00:35:06;;;;;;;1.57;0.60;;;8.70;99.90;;;;;;6154967;23;20053;-65
2023/04/14 00:37:32;;;;;;;0.97;0.50;;;8.70;99.90;;;;;;6155279;23;20148;-66
2023/04/14 00:39:58;;;;;;;0.60;0.40;;;8.70;99.90;;;;;;6155130;23;20005;-65
2023/04/14 00:42:24;;;;;;;1.40;0.70;;;8.70;99.90;;;;;;6155214;23;20076;-65
2023/04/14 00:44:50;;;;;;;1.13;0.60;;;8.80;99.90;;;;;;6129104;23;20036;-65
2023/04/14 00:47:17;;;;;;;1.37;0.87;;;8.70;99.90;;;;;;6155194;23;20101;-66
2023/04/14 00:49:43;;;;;;;1.93;0.70;;;8.70;99.90;;;;;;6154864;23;20013;-65
2023/04/14 00:52:10;;;;;;;0.90;0.60;;;8.80;99.90;;;;;;6155116;23;20036;-65
2023/04/14 00:54:37;;;;;;;2.53;0.73;;;8.70;99.90;;;;;;6155131;23;19997;-65
2023/04/14 00:57:04;;;;;;;2.33;0.80;;;8.70;99.90;;;;;;6155188;23;20380;-65
2023/04/14 00:59:30;;;;;;;0.80;0.60;;;8.80;99.90;;;;;;6152185;23;20418;-65
2023/04/14 01:01:56;;;;;;;1.03;0.50;;;8.80;99.90;;;;;;6152288;23;20448;-66
2023/04/14 01:04:22;;;;;;;2.77;0.70;;;8.70;99.90;;;;;;6152610;23;20001;-66
2023/04/14 01:06:47;;;;;;;1.00;0.70;;;8.80;99.90;;;;;;6154485;23;20013;-66
2023/04/14 01:09:15;;;;;;;0.90;0.70;;;8.80;99.90;;;;;;6155166;23;20332;-66
2023/04/14 01:11:49;;;;;;;1.47;0.60;;;8.80;99.90;;;;;;6155125;23;20013;-65
2023/04/14 01:14:37;;;;;;;1.30;0.67;;;8.80;99.90;;;;;;6156386;23;20320;-65
2023/04/14 01:17:13;;;;;;;1.47;0.60;;;8.80;99.90;;;;;;6156884;23;20442;-65
2023/04/14 01:20:15;;;;;;;1.53;0.50;;;8.80;99.90;;;;;;6156580;23;19997;-65
2023/04/14 01:23:06;;;;;;;1.77;0.67;;;8.80;99.90;;;;;;6156242;23;20005;-66
2023/04/14 01:25:53;;;;;;;2.00;1.00;;;8.80;99.90;;;;;;6155975;23;20017;-66
2023/04/14 01:28:49;;;;;;;0.93;0.40;;;8.80;99.90;;;;;;6156286;23;20081;-66
2023/04/14 01:31:43;;;;;;;1.53;0.53;;;8.80;99.90;;;;;;6156824;23;20005;-65
2023/04/14 01:34:44;;;;;;;0.50;0.40;;;8.80;99.90;;;;;;6156699;23;20002;-66
2023/04/14 01:37:16;;;;;;;1.37;0.63;;;8.80;99.90;;;;;;6120457;23;20010;-66
2023/04/14 01:39:48;;;;;;;1.48;0.70;;;8.90;99.90;;;;;;6156758;23;20339;-66
2023/04/14 01:42:18;;;;;;;0.65;0.55;;;8.80;99.90;;;;;;6156430;23;20493;-66
2023/04/14 01:44:47;;;;;;;2.73;0.53;;;8.80;99.90;;;;;;6156385;23;20327;-65
2023/04/14 01:47:16;;;;;;;0.93;0.47;;;8.80;99.90;;;;;;6157038;23;20370;-66
2023/04/14 01:49:43;;;;;;;4.30;0.60;;;8.80;99.90;;;;;;6156482;23;20017;-66
2023/04/14 01:52:12;;;;;;;1.00;0.60;;;8.80;99.90;;;;;;6156657;23;20004;-67
2023/04/14 01:54:40;;;;;;;0.97;0.50;;;8.90;99.90;;;;;;6156658;23;20005;-66
2023/04/14 01:57:08;;;;;;;1.40;0.53;;;8.80;99.90;;;;;;6156453;23;20033;-66
2023/04/14 01:59:35;;;;;;;1.30;0.30;;;8.80;99.90;;;;;;6156437;23;20025;-66
2023/04/14 02:02:04;;;;;;;1.40;0.60;;;8.80;99.90;;;;;;6156553;23;20002;-66
2023/04/14 02:04:31;;;;;;;0.93;0.40;;;8.80;99.90;;;;;;6156708;23;20001;-66
2023/04/14 02:06:59;;;;;;;1.17;0.50;;;8.80;99.90;;;;;;6156408;23;20010;-66
2023/04/14 02:09:26;;;;;;;1.90;0.40;;;8.80;99.90;;;;;;6156172;23;20408;-66
2023/04/14 02:11:54;;;;;;;0.93;0.53;;;8.80;99.90;;;;;;6156331;23;20436;-66
2023/04/14 02:14:22;;;;;;;0.50;0.30;;;8.80;99.90;;;;;;6156567;23;20072;-66
2023/04/14 02:16:49;;;;;;;2.27;0.50;;;8.80;99.90;;;;;;6156540;23;20417;-66
2023/04/14 02:19:21;;;;;;;0.67;0.33;;;8.80;99.90;;;;;;6155948;23;19998;-66
2023/04/14 02:21:49;;;;;;;0.60;0.60;;;8.80;99.90;;;;;;6156386;23;20005;-66
2023/04/14 02:24:16;;;;;;;0.60;0.60;;;8.80;99.90;;;;;;6156114;23;20059;-66
2023/04/14 02:27:07;;;;;;;0.47;0.30;;;8.80;99.90;;;;;;6156512;23;20016;-66
2023/04/14 02:29:34;;;;;;;0.50;0.33;;;8.80;99.90;;;;;;6155987;23;20009;-65
2023/04/14 02:32:06;;;;;;;1.37;0.40;;;8.80;99.90;;;;;;6156535;23;20006;-66
2023/04/14 02:34:37;;;;;;;2.00;0.47;;;8.90;99.90;;;;;;6156545;23;20006;-66
2023/04/14 02:37:08;;;;;;;1.10;0.47;;;8.80;99.90;;;;;;6156263;23;20370;-66
2023/04/14 02:39:41;;;;;;;1.83;0.40;;;8.90;99.90;;;;;;6156384;23;20424;-66
2023/04/14 02:42:14;;;;;;;0.77;0.30;;;8.90;99.90;;;;;;6155928;23;20435;-66
2023/04/14 02:45:01;;;;;;;1.23;0.40;;;8.90;99.90;;;;;;6156201;23;20097;-66
2023/04/14 02:47:36;;;;;;;1.00;0.60;;;8.90;99.90;;;;;;6156604;23;20017;-66
2023/04/14 02:50:04;;;;;;;3.67;0.50;;;8.90;99.90;;;;;;6156065;23;20017;-66
2023/04/14 02:52:32;;;;;;;0.60;0.40;;;8.90;99.90;;;;;;6156330;23;20004;-66
2023/04/14 02:55:00;;;;;;;1.70;0.50;;;8.80;99.90;;;;;;6156282;23;20033;-66
2023/04/14 02:57:26;;;;;;;2.60;0.57;;;8.90;99.90;;;;;;6155943;23;20029;-66
2023/04/14 02:59:54;;;;;;;2.73;0.40;;;8.80;99.90;;;;;;6156380;23;19997;-66
2023/04/14 03:02:21;;;;;;;0.80;0.40;;;8.80;99.90;;;;;;6156012;23;20001;-66
2023/04/14 03:04:47;;;;;;;2.00;0.40;;;8.80;99.90;;;;;;6155939;23;20060;-66
2023/04/14 03:07:15;;;;;;;1.03;0.50;;;8.80;99.90;;;;;;6155745;23;20443;-66
2023/04/14 03:09:41;;;;;;;2.77;0.60;;;8.80;99.90;;;;;;6156099;23;20076;-66
2023/04/14 03:12:13;;;;;;;2.50;0.60;;;8.80;99.90;;;;;;6156036;23;20439;-66
2023/04/14 03:14:40;;;;;;;0.95;0.40;;;8.70;99.90;;;;;;6156026;23;20005;-66
2023/04/14 03:17:08;;;;;;;3.37;0.60;;;8.80;99.90;;;;;;6155465;23;20332;-66
2023/04/14 03:19:35;;;;;;;0.97;0.50;;;8.80;99.90;;;;;;6155778;23;20048;-65
2023/04/14 03:22:03;;;;;;;2.33;0.80;;;8.80;99.90;;;;;;6155935;23;20017;-66
2023/04/14 03:24:31;;;;;;;1.67;0.90;;;8.70;99.90;;;;;;6155663;23;20005;-66
2023/04/14 03:27:03;;;;;;;2.83;1.70;;;8.70;99.90;;;;;;6155714;23;20088;-65
2023/04/14 03:29:34;;;;;;;2.23;0.87;;;8.70;99.90;;;;;;6155839;23;19997;-66
2023/04/14 03:32:05;;;;;;;3.53;1.20;;;8.60;99.90;;;;;;6156288;23;20040;-66
2023/04/14 03:34:34;;;;;;;4.23;1.00;;;8.70;99.90;;;;;;6156184;23;20013;-65
2023/04/14 03:37:01;;;;;;;4.63;1.00;;;8.70;99.90;;;;;;6155512;23;20001;-65
2023/04/14 03:39:33;;;;;;;2.23;1.00;;;8.70;99.90;;;;;;6155388;23;19997;-66
2023/04/14 03:42:00;;;;;;;3.33;1.00;;;8.70;99.90;;;;;;6155939;23;20028;-65
2023/04/14 03:44:31;;;;;;;2.87;1.00;;;8.70;99.90;;;;;;6155795;23;20012;-65
2023/04/14 03:47:00;;;;;;;2.57;0.70;;;8.60;99.90;;;;;;6155106;23;20060;-65
2023/04/14 03:49:27;;;;;;;2.03;0.93;;;8.60;99.90;;;;;;6155209;23;20004;-66
2023/04/14 03:52:01;;;;;;;1.50;1.00;;;8.60;99.90;;;;;;6155297;23;20013;-66
2023/04/14 03:54:29;;;;;;;1.73;0.90;;;8.60;99.90;;;;;;6155515;23;20085;-65
2023/04/14 03:56:57;;;;;;;1.93;0.70;;;8.60;99.90;;;;;;6155456;23;20005;-65
2023/04/14 03:59:28;;;;;;;1.73;0.87;;;8.60;99.90;;;;;;6155421;23;20076;-67
2023/04/14 04:01:55;;;;;;;3.10;1.00;;;8.60;99.90;;;;;;6155513;23;20012;-66
2023/04/14 04:04:24;;;;;;;1.80;1.20;;;8.60;99.90;;;;;;6155503;23;20080;-66
2023/04/14 04:06:51;;;;;;;1.60;0.80;;;8.60;99.90;;;;;;6155636;23;20015;-66
2023/04/14 04:09:20;;;;;;;2.67;1.03;;;8.70;99.90;;;;;;6155456;23;20008;-66
2023/04/14 04:11:48;;;;;;;2.93;1.20;;;8.60;99.90;;;;;;6155264;23;20002;-66
2023/04/14 04:14:17;;;;;;;2.63;0.87;;;8.60;99.90;;;;;;6155181;23;20472;-65
2023/04/14 04:16:46;;;;;;;2.50;0.60;;;8.60;99.90;;;;;;6155274;23;20083;-66
2023/04/14 04:19:13;;;;;;;0.90;0.60;;;8.60;99.90;;;;;;6155845;23;20014;-66
2023/04/14 04:21:41;;;;;;;1.07;0.60;;;8.60;99.90;;;;;;6155429;23;20379;-66
2023/04/14 04:24:09;;;;;;;3.03;0.60;;;8.60;99.90;;;;;;6155370;23;20029;-66
2023/04/14 04:26:34;;;;;;;1.90;0.80;;;8.60;99.90;;;;;;6155251;23;20024;-66
2023/04/14 04:29:02;;;;;;;3.17;1.00;;;8.60;99.90;;;;;;6155331;23;20033;-65
2023/04/14 04:31:28;;;;;;;1.50;0.90;;;8.60;99.90;;;;;;6155487;23;20009;-65
2023/04/14 04:33:56;;;;;;;4.17;1.30;;;8.60;99.90;;;;;;6155519;23;20008;-65
2023/04/14 04:36:25;;;;;;;2.87;1.60;;;8.50;99.90;;;;;;6155626;23;20088;-66
2023/04/14 04:38:50;;;;;;;2.73;1.50;;;8.50;99.90;;;;;;6155383;23;19997;-66
2023/04/14 04:41:25;;;;;;;1.63;1.10;;;8.60;99.90;;;;;;6155371;23;20012;-66
2023/04/14 04:43:51;;;;;;;2.60;1.27;;;8.50;99.90;;;;;;6154994;23;20076;-66
2023/04/14 04:46:46;;;;;;;3.27;1.40;;;8.50;99.90;;;;;;6155182;23;20041;-66
2023/04/14 04:49:11;;;;;;;5.67;1.40;;;8.50;99.90;;;;;;6157142;23;20432;-66
2023/04/14 04:51:37;;;;;;;3.63;1.30;;;8.50;99.90;;;;;;6156899;23;20013;-66
2023/04/14 04:54:04;;;;;;;3.07;1.40;;;8.50;99.90;;;;;;6157136;23;20014;-66
2023/04/14 04:56:30;;;;;;;2.20;1.40;;;8.50;99.90;;;;;;6130729;23;20014;-65
2023/04/14 04:58:56;;;;;;;6.20;1.60;;;8.50;99.90;;;;;;6157271;23;20008;-66
2023/04/14 05:01:21;;;;;;;3.43;1.33;;;8.50;99.90;;;;;;6157329;23;20432;-66
2023/04/14 05:03:47;;;;;;;1.97;1.33;;;8.50;99.90;;;;;;6157188;23;20072;-66
2023/04/14 05:06:13;;;;;;;2.93;1.70;;;8.50;99.90;;;;;;6157110;23;20016;-66
2023/04/14 05:08:39;;;;;;;6.90;1.50;;;8.50;99.90;;;;;;6156824;23;20076;-67
2023/04/14 05:11:05;;;;;;;5.50;1.30;;;8.60;99.90;;;;;;6157161;23;20508;-66
2023/04/14 05:13:31;;;;;;;3.33;1.43;;;8.60;99.90;;;;;;6156951;23;20014;-66
2023/04/14 05:16:07;;;;;;;2.23;1.10;;;8.60;99.90;;;;;;6157126;23;20100;-66
2023/04/14 05:18:34;;;;;;;2.03;0.90;;;8.60;99.90;;;;;;6156852;23;20005;-66
2023/04/14 05:21:07;;;;;;;1.80;0.87;;;8.60;99.90;;;;;;6156616;23;19998;-66
2023/04/14 05:23:37;;;;;;;1.73;0.60;;;8.60;99.90;;;;;;6156692;23;20001;-67
2023/04/14 05:26:04;;;;;;;2.53;1.00;;;8.60;99.90;;;;;;6156764;23;20013;-66
2023/04/14 05:28:30;;;;;;;3.17;1.70;;;8.60;99.90;;;;;;6157335;23;20101;-66
2023/04/14 05:30:55;;;;;;;2.07;1.20;;;8.60;99.90;;;;;;6156615;23;20431;-66
2023/04/14 05:33:21;;;;;;;1.13;0.87;;;8.50;99.90;;;;;;6156827;23;20031;-66
2023/04/14 05:35:49;;;;;;;1.90;1.03;;;8.50;99.90;;;;;;6156743;23;19998;-66
2023/04/14 05:38:16;;;;;;;2.13;1.20;;;8.50;99.90;;;;;;6156571;23;20008;-66
2023/04/14 05:40:41;;;;;;;3.63;1.00;;;8.40;99.90;;;;;;6156728;23;19998;-68
2023/04/14 05:43:07;;;;;;;1.93;0.90;;;8.40;99.90;;;;;;6156411;23;20009;-66
2023/04/14 05:45:33;;;;;;;1.30;0.80;;;8.40;99.90;;;;;;6156056;23;20023;-66
2023/04/14 05:47:59;;;;;;;3.27;0.70;;;8.40;99.90;;;;;;6156159;23;20052;-66
2023/04/14 05:50:25;;;;;;;2.33;0.90;;;8.40;99.90;;;;;;6156084;23;20091;-66
2023/04/14 05:52:51;;;;;;;4.37;2.13;;;8.50;99.90;;;;;;6156395;23;20032;-66
2023/04/14 05:55:17;;;;;;;3.73;2.13;;;8.40;99.90;;;;;;6156337;23;20002;-66
2023/04/14 05:57:43;;;;;;;4.00;1.80;;;8.50;99.90;;;;;;6156832;23;20008;-66
2023/04/14 06:00:11;;;;;;;3.83;1.90;;;8.50;99.90;;;;;;6156097;23;20010;-66
2023/04/14 06:02:37;;;;;;;4.90;2.03;;;8.50;99.90;;;;;;6156800;23;20001;-66
2023/04/14 06:05:06;;;;;;;2.93;1.80;;;8.60;99.90;;;;;;6156561;23;20005;-66
2023/04/14 06:07:32;;;;;;;4.00;2.23;;;8.60;99.90;;;;;;6156486;23;20071;-66
2023/04/14 06:09:58;;;;;;;3.87;2.33;;;8.50;99.90;;;;;;6153912;23;19998;-66
2023/04/14 06:12:23;;;;;;;4.17;1.90;;;8.50;99.90;;;;;;6156148;23;20490;-65
2023/04/14 06:14:49;;;;;;;3.33;2.23;;;8.50;99.90;;;;;;6155521;23;20029;-66
2023/04/14 06:17:15;;;;;;;4.90;3.07;;;8.50;99.90;;;;;;6156188;23;20309;-65
2023/04/14 06:19:41;;;;;;;4.60;2.90;;;8.50;99.90;;;;;;6155468;23;20014;-66
2023/04/14 06:22:10;;;;;;;3.63;2.73;;;8.50;99.90;;;;;;6155772;23;20080;-69
2023/04/14 06:24:35;;;;;;;3.97;2.57;;;8.50;99.90;;;;;;6155733;23;20005;-66
2023/04/14 06:27:05;;;;;;;5.03;2.70;;;8.50;99.90;;;;;;6155423;23;20017;-66
2023/04/14 06:29:31;;;;;;;3.27;2.47;;;8.50;99.90;;;;;;6155311;23;20009;-66
2023/04/14 06:31:56;;;;;;;2.60;2.10;;;8.50;99.90;;;;;;6154893;23;20424;-66
2023/04/14 06:34:23;;;;;;;3.73;2.10;;;8.60;99.90;;;;;;6155072;23;20004;-68
2023/04/14 06:36:48;;;;;;;3.87;2.10;;;8.60;99.90;;;;;;6155512;23;20005;-69
2023/04/14 06:39:14;;;;;;;4.40;2.03;;;8.60;99.90;;;;;;6155681;23;20072;-65
2023/04/14 06:41:40;;;;;;;3.43;1.70;;;8.70;99.90;;;;;;6155828;23;20005;-66
2023/04/14 06:44:06;;;;;;;4.83;1.70;;;8.70;99.90;;;;;;6128176;23;20017;-66
2023/04/14 06:46:34;;;;;;;3.00;1.60;;;8.70;99.90;;;;;;6154757;23;20092;-65
2023/04/14 06:49:00;;;;;;;5.07;2.10;;;8.70;99.90;;;;;;6154748;23;20432;-66
2023/04/14 06:51:26;;;;;;;5.03;2.83;;;8.70;99.90;;;;;;6154768;23;20100;-71
2023/04/14 06:53:52;;;;;;;5.00;2.13;;;8.70;99.90;;;;;;6155123;23;20435;-66
2023/04/14 06:56:18;;;;;;;4.43;3.00;;;8.70;99.90;;;;;;6154222;23;20006;-67
2023/04/14 06:58:44;;;;;;;11.17;4.13;;;8.80;99.90;;;;;;6154731;23;20052;-65
2023/04/14 07:01:10;;;;;;;4.13;3.07;;;8.80;99.90;;;;;;6154967;23;20186;-66
2023/04/14 07:03:36;;;;;;;5.10;2.80;;;8.80;99.90;;;;;;6155155;23;19997;-66
2023/04/14 07:06:07;;;;;;;3.57;2.73;;;8.80;99.90;;;;;;6156025;23;20908;-66
2023/04/14 07:08:34;;;;;;;6.50;3.07;;;8.80;99.90;;;;;;6156008;23;20009;-67
2023/04/14 07:11:04;;;;;;;3.03;1.97;;;8.80;99.90;;;;;;6155074;23;20382;-66
2023/04/14 07:13:30;;;;;;;3.47;2.10;;;8.80;99.90;;;;;;6155462;23;20020;-66
2023/04/14 07:15:57;;;;;;;2.30;1.90;;;8.80;99.90;;;;;;6154326;23;20048;-66
2023/04/14 07:18:23;;;;;;;7.33;2.00;;;8.90;99.90;;;;;;6155233;23;20002;-66
2023/04/14 07:20:53;;;;;;;3.60;2.20;;;8.90;99.90;;;;;;6155786;23;19998;-66
2023/04/14 07:23:19;;;;;;;4.37;2.10;;;8.90;99.90;;;;;;6155829;23;20514;-66
2023/04/14 07:25:50;;;;;;;3.83;2.60;;;8.90;99.90;;;;;;6155436;23;20018;-66
2023/04/14 07:28:16;;;;;;;3.40;2.40;;;9.00;99.90;;;;;;6155445;23;20142;-66
2023/04/14 07:30:42;;;;;;;4.47;2.73;;;9.00;99.90;;;;;;6155673;23;20030;-66
2023/04/14 07:33:08;;;;;;;5.70;2.67;;;9.00;99.90;;;;;;6155388;23;20416;-66
2023/04/14 07:35:34;;;;;;;3.77;2.53;;;9.10;99.90;;;;;;6155279;23;20013;-66
2023/04/14 07:37:59;;;;;;;4.23;2.43;;;9.10;99.90;;;;;;6155634;23;19997;-66
2023/04/14 07:40:25;;;;;;;3.83;2.47;;;9.10;99.90;;;;;;6155576;23;20012;-66
2023/04/14 07:42:51;;;;;;;2.63;2.03;;;9.10;99.90;;;;;;6155728;23;20008;-66
2023/04/14 07:45:17;;;;;;;4.03;2.70;;;9.10;99.90;;;;;;6155428;23;20336;-66
2023/04/14 07:47:43;;;;;;;4.30;2.93;;;9.10;99.90;;;;;;6129406;23;20406;-67
2023/04/14 07:50:09;;;;;;;4.17;3.60;;;9.10;99.90;;;;;;6154251;23;20041;-66
2023/04/14 07:52:35;;;;;;;4.83;3.20;;;9.10;99.90;;;;;;6155290;23;20005;-66
2023/04/14 07:55:02;;;;;;;4.00;2.70;;;9.20;99.90;;;;;;6155303;23;19998;-66
2023/04/14 07:57:28;;;;;;;3.87;2.47;;;9.20;99.90;;;;;;6155598;23;20092;-66
2023/04/14 07:59:54;;;;;;;3.20;2.47;;;9.20;99.90;;;;;;6155243;23;20065;-66
2023/04/14 08:02:21;;;;;;;4.00;2.10;;;9.20;99.90;;;;;;6155315;23;20013;-66
2023/04/14 08:04:46;;;;;;;3.97;2.27;;;9.20;99.90;;;;;;6155313;23;20503;-66
2023/04/14 08:07:12;;;;;;;3.40;2.10;;;9.20;99.90;;;;;;6155283;23;20017;-66
2023/04/14 08:09:38;;;;;;;2.60;2.03;;;9.20;99.90;;;;;;6155137;23;20008;-66
2023/04/14 08:12:04;;;;;;;4.70;2.50;;;9.20;99.90;;;;;;6155365;23;20002;-66
2023/04/14 08:14:30;;;;;;;3.73;2.40;;;9.30;99.90;;;;;;6155435;23;20013;-65
2023/04/14 08:16:55;;;;;;;5.23;2.10;;;9.30;99.90;;;;;;6155203;23;20503;-66
2023/04/14 08:19:21;;;;;;;3.67;2.30;;;9.30;99.90;;;;;;6155468;23;20005;-66
2023/04/14 08:21:47;;;;;;;7.00;2.20;;;9.30;99.90;;;;;;6155341;23;20013;-66
2023/04/14 08:24:13;;;;;;;4.97;2.60;;;9.30;99.90;;;;;;6155365;23;20428;-66
2023/04/14 08:26:39;;;;;;;3.87;2.20;;;9.30;99.90;;;;;;6155353;23;20016;-66
2023/04/14 08:29:05;;;;;;;3.97;2.37;;;9.30;99.90;;;;;;6155708;23;20010;-66
2023/04/14 08:31:32;;;;;;;3.83;2.10;;;9.30;99.90;;;;;;6155170;23;20028;-66
2023/04/14 08:33:57;;;;;;;3.17;2.30;;;9.30;99.90;;;;;;6154931;23;20008;-66
2023/04/14 08:36:24;;;;;;;3.10;2.33;;;9.30;99.90;;;;;;6155243;23;20029;-66
2023/04/14 08:38:50;;;;;;;4.57;2.03;;;9.30;99.90;;;;;;6155533;23;20008;-66
2023/04/14 08:41:18;;;;;;;3.77;2.47;;;9.30;99.90;;;;;;6155181;23;20006;-66
2023/04/14 08:43:44;;;;;;;4.87;3.90;;;9.30;99.90;;;;;;6154837;23;20032;-66
2023/04/14 08:46:10;;;;;;;5.00;3.10;;;9.30;99.90;;;;;;6155330;23;20325;-66
2023/04/14 08:48:38;;;;;;;4.90;3.23;;;9.30;99.90;;;;;;6155051;23;20428;-66
2023/04/14 08:51:27;;;;;;;5.90;3.47;;;9.30;99.90;;;;;;6154772;23;20021;-66
2023/04/14 08:53:54;;;;;;;3.30;2.50;;;9.40;99.90;;;;;;6155109;23;20001;-66
2023/04/14 08:56:22;;;;;;;4.57;2.80;;;9.40;99.90;;;;;;6155314;23;20009;-66
2023/04/14 08:58:49;;;;;;;5.07;2.53;;;9.40;99.90;;;;;;6155268;23;20013;-66
2023/04/14 09:01:15;;;;;;;3.80;2.63;;;9.50;99.90;;;;;;6155317;23;20052;-66
2023/04/14 09:03:42;;;;;;;5.67;3.43;;;9.50;99.90;;;;;;6155000;23;20049;-66
2023/04/14 09:06:08;;;;;;;6.63;4.10;;;9.60;99.90;;;;;;6155386;23;20010;-66
2023/04/14 09:08:35;;;;;;;6.97;3.97;;;9.60;99.90;;;;;;6155076;23;20005;-66
2023/04/14 09:11:04;;;;;;;5.83;3.30;;;9.60;99.90;;;;;;6155350;23;19997;-66
2023/04/14 09:13:30;;;;;;;5.50;3.47;;;9.60;99.90;;;;;;6155302;23;20029;-66
2023/04/14 09:15:56;;;;;;;4.87;3.37;;;9.70;99.90;;;;;;6154805;23;20002;-66
2023/04/14 09:18:24;;;;;;;3.83;2.63;;;9.70;99.90;;;;;;6155523;23;20009;-66
2023/04/14 09:20:51;;;;;;;7.60;3.67;;;9.70;99.90;;;;;;6155472;23;20010;-66
2023/04/14 09:23:18;;;;;;;5.83;3.47;;;9.70;99.90;;;;;;6155002;23;20089;-66
2023/04/14 09:25:44;;;;;;;10.53;4.00;;;9.80;99.90;;;;;;6155220;23;20424;-66
2023/04/14 09:28:10;;;;;;;4.43;3.37;;;9.80;99.90;;;;;;6154802;23;20036;-66
2023/04/14 09:30:36;;;;;;;4.80;2.00;;;9.90;99.90;;;;;;6155100;23;19997;-67
2023/04/14 09:33:06;;;;;;;3.13;2.10;;;9.90;99.90;;;;;;6155516;23;20064;-66
2023/04/14 09:35:47;;;;;;;3.73;1.80;;;9.90;99.90;;;;;;6156828;23;20005;-66
2023/04/14 09:38:14;;;;;;;3.63;2.20;;;9.90;99.90;;;;;;6156917;23;20009;-65
2023/04/14 09:40:43;;;;;;;4.13;2.20;;;9.90;99.90;;;;;;6156416;23;20008;-65
2023/04/14 09:43:23;;;;;;;3.70;2.40;;;10.00;99.90;;;;;;6157045;23;20009;-65
2023/04/14 09:45:49;;;;;;;3.87;2.10;;;10.00;99.90;;;;;;6156643;23;20009;-65
2023/04/14 09:48:15;;;;;;;4.20;3.00;;;10.00;99.90;;;;;;6156659;23;20012;-65
2023/04/14 09:51:01;;;;;;;3.37;2.63;;;10.00;99.90;;;;;;6156271;23;20084;-67
2023/04/14 09:53:31;;;;;;;3.50;2.13;;;10.00;99.90;;;;;;6156675;23;20121;-67
2023/04/14 09:55:58;;;;;;;2.45;1.60;;;10.10;99.90;;;;;;6156775;23;20001;-67
2023/04/14 09:58:29;;;;;;;3.20;1.90;;;10.10;99.90;;;;;;6156373;23;20002;-67
2023/04/14 10:00:56;;;;;;;2.22;1.25;;;10.10;99.90;;;;;;6156538;23;20327;-67
2023/04/14 10:03:33;;;;;;;3.97;1.30;;;10.10;99.90;;;;;;6156166;23;20008;-67
2023/04/14 10:06:00;;;;;;;1.47;0.90;;;10.10;99.90;;;;;;6156063;23;20013;-67
2023/04/14 10:08:37;;;;;;;1.75;1.10;;;10.10;99.90;;;;;;6156344;23;20006;-66
2023/04/14 10:11:22;;;;;;;2.73;1.10;;;10.10;99.90;;;;;;6156065;23;20001;-67
2023/04/14 10:13:50;;;;;;;3.90;1.03;;;10.10;99.90;;;;;;6156009;23;20073;-66
2023/04/14 10:16:16;;;;;;;1.30;0.93;;;10.10;99.90;;;;;;6129864;23;20009;-66
2023/04/14 10:18:43;;;;;;;2.50;1.50;;;10.10;99.90;;;;;;6155977;23;20005;-66
2023/04/14 10:21:09;;;;;;;3.20;1.15;;;10.10;99.90;;;;;;6155429;23;20069;-67
2023/04/14 10:23:37;;;;;;;3.40;1.10;;;10.10;99.90;;;;;;6156304;23;20077;-67
2023/04/14 10:26:06;;;;;;;2.60;1.25;;;10.10;99.90;;;;;;6155997;23;20035;-66
2023/04/14 10:28:36;;;;;;;1.53;1.10;;;10.10;99.90;;;;;;6155981;23;20002;-66
2023/04/14 10:31:07;;;;;;;2.30;1.20;;;10.10;99.90;;;;;;6155511;23;20007;-66
2023/04/14 10:33:36;;;;;;;3.97;1.63;;;10.10;99.90;;;;;;6155881;23;20056;-66
2023/04/14 10:36:03;;;;;;;1.67;1.00;;;10.10;99.90;;;;;;6155944;23;20053;-67
2023/04/14 10:38:46;;;;;;;3.53;1.20;;;10.20;99.90;;;;;;6156220;23;20016;-67
2023/04/14 10:41:12;;;;;;;4.60;1.10;;;10.20;99.80;;;;;;6156112;23;20001;-66
2023/04/14 10:43:39;;;;;;;2.57;1.40;;;10.20;99.90;;;;;;6156018;23;20065;-66
2023/04/14 10:46:06;;;;;;;1.70;1.13;;;10.20;99.90;;;;;;6155860;23;20045;-67
2023/04/14 10:48:38;;;;;;;1.57;1.10;;;10.30;99.90;;;;;;6155785;23;20013;-67
2023/04/14 10:51:09;;;;;;;2.07;1.07;;;10.20;99.90;;;;;;6155485;23;20020;-66
2023/04/14 10:53:43;;;;;;;1.45;0.93;;;10.30;99.90;;;;;;6156048;23;20337;-67
2023/04/14 10:56:10;;;;;;;3.70;1.40;;;10.30;99.90;;;;;;6156258;23;20428;-67
2023/04/14 10:58:36;;;;;;;4.47;1.30;;;10.30;99.90;;;;;;6155915;23;20001;-66
2023/04/14 11:01:23;;;;;;;2.08;1.40;;;10.30;99.90;;;;;;6155870;23;20323;-66
2023/04/14 11:03:48;;;;;;;4.83;1.60;;;10.30;99.90;;;;;;6156010;23;20006;-67
2023/04/14 11:06:46;;;;;;;3.63;1.30;;;10.40;99.90;;;;;;6155305;23;20009;-66
2023/04/14 11:09:30;;;;;;;1.13;1.02;;;10.40;99.90;;;;;;6154927;23;20427;-67
2023/04/14 11:11:56;;;;;;;1.97;0.97;;;10.40;99.90;;;;;;6155834;23;20021;-67
2023/04/14 11:14:41;;;;;;;1.70;1.38;;;10.40;99.90;;;;;;6152009;23;20022;-67
2023/04/14 11:17:07;;;;;;;1.77;1.30;;;10.40;99.90;;;;;;6125216;23;20014;-68
2023/04/14 11:19:33;;;;;;;3.33;1.27;;;10.40;99.90;;;;;;6154600;23;20013;-67
2023/04/14 11:21:59;;;;;;;3.90;2.60;;;10.40;99.90;;;;;;6155254;23;20002;-67
2023/04/14 11:24:25;;;;;;;2.63;1.70;;;10.50;99.90;;;;;;6155197;23;20052;-67
2023/04/14 11:26:55;;;;;;;8.10;4.73;;;10.50;99.90;;;;;;6155382;23;20020;-67
2023/04/14 11:29:21;;;;;;;4.20;1.95;;;10.50;99.90;;;;;;6155159;23;20005;-67
2023/04/14 11:32:05;;;;;;;5.63;2.45;;;10.60;99.90;;;;;;6155901;23;20017;-67
2023/04/14 11:34:32;;;;;;;2.13;1.20;;;10.60;99.90;;;;;;6155855;23;20037;-67
2023/04/14 11:37:00;;;;;;;2.88;1.30;;;10.70;99.90;;;;;;6155275;23;20369;-67
2023/04/14 11:39:27;;;;;;;1.92;1.25;;;10.70;99.90;;;;;;6151578;23;20012;-67
2023/04/14 11:41:54;;;;;;;3.25;1.08;;;10.80;99.90;;;;;;6152009;23;20046;-67
2023/04/14 11:44:21;;;;;;;3.40;1.50;;;10.80;99.90;;;;;;6153103;23;20084;-67
2023/04/14 11:46:48;;;;;;;2.30;1.30;;;10.90;99.80;;;;;;6154923;23;20020;-67
2023/04/14 11:49:14;;;;;;;1.70;1.13;;;11.00;99.50;;;;;;6129414;23;20060;-67
2023/04/14 11:51:40;;;;;;;1.98;0.93;;;11.10;99.40;;;;;;6155391;23;20018;-67
2023/04/14 11:54:06;;;;;;;2.30;1.00;;;11.20;99.30;;;;;;6155152;23;20340;-67
2023/04/14 11:56:31;;;;;;;2.80;1.30;;;11.30;99.00;;;;;;6154502;23;20424;-67
2023/04/14 11:58:59;;;;;;;2.38;1.17;;;11.40;99.00;;;;;;6155052;23;20002;-67
2023/04/14 12:01:25;;;;;;;3.97;1.45;;;11.50;97.90;;;;;;6154800;23;20006;-67
2023/04/14 12:03:51;;;;;;;1.98;0.98;;;11.50;98.20;;;;;;6155309;23;20404;-67
2023/04/14 12:06:17;;;;;;;2.58;1.50;;;11.50;97.80;;;;;;6154672;23;20013;-67
2023/04/14 12:08:49;;;;;;;1.52;0.90;;;11.60;97.10;;;;;;6154690;23;20004;-67
2023/04/14 12:11:16;;;;;;;2.63;1.40;;;11.60;97.10;;;;;;6154918;23;20325;-67
2023/04/14 12:13:43;;;;;;;3.05;1.10;;;11.60;96.90;;;;;;6128843;23;20398;-67
2023/04/14 12:16:16;;;;;;;4.15;2.90;;;11.60;96.60;;;;;;6154944;23;20008;-67
2023/04/14 12:18:43;;;;;;;2.42;1.40;;;11.60;96.50;;;;;;6155211;23;20500;-67
2023/04/14 12:21:09;;;;;;;1.27;0.90;;;11.60;96.20;;;;;;6154882;23;20085;-67
2023/04/14 12:23:36;;;;;;;3.88;1.88;;;11.60;96.00;;;;;;6154442;23;20064;-67
2023/04/14 12:26:02;;;;;;;4.38;1.60;;;11.60;96.10;;;;;;6155109;23;20021;-67
2023/04/14 12:28:29;;;;;;;2.28;1.50;;;11.60;96.10;;;;;;6154450;23;19998;-67
2023/04/14 12:31:02;;;;;;;1.42;1.10;;;11.60;96.10;;;;;;6154601;23;20087;-67
2023/04/14 12:33:30;;;;;;;2.33;0.90;;;11.60;95.90;;;;;;6154730;23;20525;-68
2023/04/14 12:36:08;;;;;;;4.15;1.15;;;11.60;95.10;;;;;;6154711;23;20005;-67
2023/04/14 12:38:34;;;;;;;2.03;1.17;;;11.60;95.30;;;;;;6154592;23;20435;-67
2023/04/14 12:41:00;;;;;;;2.35;1.20;;;11.60;95.20;;;;;;6155155;23;20045;-67
2023/04/14 12:43:35;;;;;;;2.15;1.10;;;11.60;94.60;;;;;;6155504;23;20324;-68
2023/04/14 12:46:02;;;;;;;2.67;1.20;;;11.50;95.20;;;;;;6154759;23;20013;-67
2023/04/14 12:48:43;;;;;;;4.68;1.42;;;11.50;95.10;;;;;;6154742;23;20002;-67
2023/04/14 12:51:11;;;;;;;4.03;1.38;;;11.50;95.40;;;;;;6155011;23;20021;-67
2023/04/14 12:53:38;;;;;;;4.93;1.15;;;11.60;95.80;;;;;;6154066;23;20005;-67
2023/04/14 12:56:08;;;;;;;1.70;1.20;;;11.60;94.10;;;;;;6152294;23;20001;-67
2023/04/14 12:58:36;;;;;;;3.15;1.38;;;11.60;94.80;;;;;;6153091;23;20052;-67
2023/04/14 13:01:09;;;;;;;5.50;1.90;;;11.60;94.80;;;;;;6154682;23;20060;-67
2023/04/14 13:03:53;;;;;;;3.30;2.00;;;11.60;94.60;;;;;;6155184;23;20006;-67